Kezdőlap
METAR-TAF:

METAR-TAF

Repülőterek :

Monticello, Kentucky, Amerikai Egyesült Államok

földrajzi szélesség: 36-51-19N, földrajzi hosszúság: 084-51-22W, magasság: 294 m

Jelenlegi meteorológiai megfigyelések

A jelentés 26 perccel ezelõtt készült, 09:56 UTC
Szélcsend
Hőmérséklet 21°C
Páratartalom 100%
Légköri nyomás 1018 hPa
Látótávolság: 16.1 km
Kevés felhő 11000 lábon

METAR: KEKQ 210956Z AUTO 00000KT 10SM FEW110 21/21 A3007 RMK AO2 LTG DSNT N SLP171 T02110211

Idő: 06:22 (10:22 UTC)


TAF: hiányzik

Meteorológiai megfigyelések és előrejelzések több, mint 4000 repülőtéren (METAR és TAF jelentéseket).

A térképen piros és sárga pontok jelzik az elérhető meteorológiai állomásokat.

Mozgassa az egeret a pont fölött, hogy megjelenjen az állomás neve.

Azután kattintson az időjárási megfigyelések és előrejelzések megtekintéséhez.

A térkép megváltoztatása: kattintson a fekete keresztel jelölt zöld gombra ráközelítéshez, a vonallal jelölt zöld gombra távolításhoz, vagy a zöld nyilakra a szomszédos térképek eléréséhez.


METAR-TAF: